Terminal Aerodrome Forecast
Issued by NWS

Home | Current Version | Previous Version | Graphics & Text | Print | Product List | Glossary On
Versions: 1 2 3 4 5 6 7 8 9 10 11 12 13
975
FTUS43 KICT 082328
TAFRSL
TAF
KRSL 082328Z 0900/0924 30017G24KT P6SM SCT200
     FM090500 30012KT P6SM SCT150
     FM091100 31009KT P6SM SCT080 BKN150
     FM091600 33015G21KT P6SM BKN150=

USA.gov is the U.S. government's official web portal to all federal, state and local government web resources and services.